sensor_id;sensor_type;location;lat;lon;timestamp;temperature;humidity
4386;DHT22;2207;53.540;10.042;2023-04-25T11:23:15;31.00;34.10
4386;DHT22;2207;53.540;10.042;2023-04-25T11:25:42;31.50;28.90
4386;DHT22;2207;53.540;10.042;2023-04-25T11:28:10;28.30;27.10
4386;DHT22;2207;53.540;10.042;2023-04-25T11:37:30;26.20;29.50
4386;DHT22;2207;53.540;10.042;2023-04-25T11:39:56;26.70;28.90
4386;DHT22;2207;53.540;10.042;2023-04-25T11:42:23;27.30;28.00
4386;DHT22;2207;53.540;10.042;2023-04-25T11:44:50;27.60;27.20
4386;DHT22;2207;53.540;10.042;2023-04-25T11:47:17;27.90;27.20
4386;DHT22;2207;53.540;10.042;2023-04-25T11:49:44;27.80;27.60
4386;DHT22;2207;53.540;10.042;2023-04-25T11:52:10;28.00;27.90
4386;DHT22;2207;53.540;10.042;2023-04-25T11:54:39;28.40;27.00
4386;DHT22;2207;53.540;10.042;2023-04-25T11:57:06;28.80;26.10
4386;DHT22;2207;53.540;10.042;2023-04-25T11:59:33;28.80;26.10
4386;DHT22;2207;53.540;10.042;2023-04-25T12:01:59;28.50;26.20
4386;DHT22;2207;53.540;10.042;2023-04-25T12:04:30;28.20;26.40
4386;DHT22;2207;53.540;10.042;2023-04-25T12:06:57;28.00;31.20
4386;DHT22;2207;53.540;10.042;2023-04-25T12:09:29;28.30;28.80
4386;DHT22;2207;53.540;10.042;2023-04-25T12:11:58;29.10;27.50
4386;DHT22;2207;53.540;10.042;2023-04-25T12:18:23;28.60;27.00
4386;DHT22;2207;53.540;10.042;2023-04-25T12:20:52;25.40;26.60
4386;DHT22;2207;53.540;10.042;2023-04-25T12:23:25;21.70;28.50
4386;DHT22;2207;53.540;10.042;2023-04-25T12:25:53;18.90;30.30
4386;DHT22;2207;53.540;10.042;2023-04-25T12:28:21;17.00;31.60
4386;DHT22;2207;53.540;10.042;2023-04-25T12:30:53;15.70;32.70
4386;DHT22;2207;53.540;10.042;2023-04-25T12:33:21;14.90;32.70
4386;DHT22;2207;53.540;10.042;2023-04-25T12:35:48;14.20;32.50
4386;DHT22;2207;53.540;10.042;2023-04-25T12:38:21;13.60;32.30
4386;DHT22;2207;53.540;10.042;2023-04-25T12:40:48;13.00;32.50
4386;DHT22;2207;53.540;10.042;2023-04-25T12:43:15;12.60;33.00
4386;DHT22;2207;53.540;10.042;2023-04-25T12:45:42;12.20;33.40
4386;DHT22;2207;53.540;10.042;2023-04-25T12:48:09;11.90;34.00
4386;DHT22;2207;53.540;10.042;2023-04-25T12:50:37;12.00;34.30
4386;DHT22;2207;53.540;10.042;2023-04-25T12:53:04;12.30;34.30
4386;DHT22;2207;53.540;10.042;2023-04-25T12:55:30;12.50;33.90
4386;DHT22;2207;53.540;10.042;2023-04-25T12:57:57;12.70;33.70
4386;DHT22;2207;53.540;10.042;2023-04-25T13:00:24;12.90;33.50
4386;DHT22;2207;53.540;10.042;2023-04-25T13:02:51;13.10;33.60
4386;DHT22;2207;53.540;10.042;2023-04-25T13:05:18;13.10;33.80
4386;DHT22;2207;53.540;10.042;2023-04-25T13:07:46;13.00;34.60
4386;DHT22;2207;53.540;10.042;2023-04-25T13:10:13;12.90;35.40
4386;DHT22;2207;53.540;10.042;2023-04-25T13:12:40;12.60;35.70
4386;DHT22;2207;53.540;10.042;2023-04-25T13:15:08;12.30;36.60
4386;DHT22;2207;53.540;10.042;2023-04-25T13:17:36;12.00;37.10
4386;DHT22;2207;53.540;10.042;2023-04-25T13:20:04;11.60;37.50
4386;DHT22;2207;53.540;10.042;2023-04-25T13:22:31;11.40;37.70
4386;DHT22;2207;53.540;10.042;2023-04-25T13:24:59;11.60;37.60
4386;DHT22;2207;53.540;10.042;2023-04-25T13:27:26;11.70;37.40
4386;DHT22;2207;53.540;10.042;2023-04-25T13:29:52;11.60;38.20
4386;DHT22;2207;53.540;10.042;2023-04-25T13:32:20;10.90;39.70
4386;DHT22;2207;53.540;10.042;2023-04-25T13:34:46;10.50;41.10
4386;DHT22;2207;53.540;10.042;2023-04-25T13:37:13;10.60;42.10
4386;DHT22;2207;53.540;10.042;2023-04-25T13:39:40;10.80;42.30
4386;DHT22;2207;53.540;10.042;2023-04-25T13:42:08;11.00;42.50
4386;DHT22;2207;53.540;10.042;2023-04-25T13:44:34;11.20;42.70
4386;DHT22;2207;53.540;10.042;2023-04-25T13:47:01;11.10;42.60
4386;DHT22;2207;53.540;10.042;2023-04-25T13:49:28;10.90;43.40
4386;DHT22;2207;53.540;10.042;2023-04-25T13:51:55;10.80;44.30
4386;DHT22;2207;53.540;10.042;2023-04-25T13:54:21;11.10;44.60
4386;DHT22;2207;53.540;10.042;2023-04-25T13:56:49;11.40;43.90
4386;DHT22;2207;53.540;10.042;2023-04-25T13:59:25;11.30;43.60
4386;DHT22;2207;53.540;10.042;2023-04-25T14:01:52;10.90;44.30
4386;DHT22;2207;53.540;10.042;2023-04-25T14:04:19;10.40;44.90
4386;DHT22;2207;53.540;10.042;2023-04-25T14:06:45;10.00;45.80
4386;DHT22;2207;53.540;10.042;2023-04-25T14:09:12;9.80;47.60
4386;DHT22;2207;53.540;10.042;2023-04-25T14:11:40;9.80;48.10
4386;DHT22;2207;53.540;10.042;2023-04-25T14:14:07;9.90;48.20
4386;DHT22;2207;53.540;10.042;2023-04-25T14:16:35;10.10;47.20
4386;DHT22;2207;53.540;10.042;2023-04-25T14:19:02;10.20;47.00
4386;DHT22;2207;53.540;10.042;2023-04-25T14:21:29;10.50;46.80
4386;DHT22;2207;53.540;10.042;2023-04-25T14:23:57;10.70;46.40
4386;DHT22;2207;53.540;10.042;2023-04-25T14:26:23;10.70;46.10
4386;DHT22;2207;53.540;10.042;2023-04-25T14:28:51;10.60;46.20
4386;DHT22;2207;53.540;10.042;2023-04-25T14:31:18;10.40;46.70
4386;DHT22;2207;53.540;10.042;2023-04-25T14:33:46;10.20;47.20
4386;DHT22;2207;53.540;10.042;2023-04-25T14:36:13;9.90;48.50
4386;DHT22;2207;53.540;10.042;2023-04-25T14:38:40;9.80;48.90
4386;DHT22;2207;53.540;10.042;2023-04-25T14:41:07;9.70;49.40
4386;DHT22;2207;53.540;10.042;2023-04-25T14:43:34;9.70;49.70
4386;DHT22;2207;53.540;10.042;2023-04-25T14:46:01;9.70;49.40
4386;DHT22;2207;53.540;10.042;2023-04-25T14:48:28;9.80;49.40
4386;DHT22;2207;53.540;10.042;2023-04-25T14:50:57;10.10;48.00
4386;DHT22;2207;53.540;10.042;2023-04-25T14:53:24;10.40;47.10
4386;DHT22;2207;53.540;10.042;2023-04-25T14:55:50;10.60;46.30
4386;DHT22;2207;53.540;10.042;2023-04-25T14:58:17;10.80;45.90
4386;DHT22;2207;53.540;10.042;2023-04-25T15:00:45;10.90;45.70
4386;DHT22;2207;53.540;10.042;2023-04-25T15:03:12;11.00;45.70
4386;DHT22;2207;53.540;10.042;2023-04-25T15:05:42;11.20;45.50
4386;DHT22;2207;53.540;10.042;2023-04-25T15:08:10;11.40;45.10
4386;DHT22;2207;53.540;10.042;2023-04-25T15:10:37;11.70;43.70
4386;DHT22;2207;53.540;10.042;2023-04-25T15:13:04;11.70;43.10
4386;DHT22;2207;53.540;10.042;2023-04-25T15:15:31;11.70;42.10
4386;DHT22;2207;53.540;10.042;2023-04-25T15:17:57;11.60;41.60
4386;DHT22;2207;53.540;10.042;2023-04-25T15:20:24;11.50;41.60
4386;DHT22;2207;53.540;10.042;2023-04-25T15:22:52;11.50;41.60
4386;DHT22;2207;53.540;10.042;2023-04-25T15:25:20;11.30;41.50
4386;DHT22;2207;53.540;10.042;2023-04-25T15:27:47;11.20;41.70
4386;DHT22;2207;53.540;10.042;2023-04-25T15:30:17;11.20;42.00
4386;DHT22;2207;53.540;10.042;2023-04-25T15:32:45;11.30;42.20
4386;DHT22;2207;53.540;10.042;2023-04-25T15:35:13;11.30;42.20
4386;DHT22;2207;53.540;10.042;2023-04-25T15:37:40;11.30;42.20
4386;DHT22;2207;53.540;10.042;2023-04-25T15:40:09;11.30;42.40
4386;DHT22;2207;53.540;10.042;2023-04-25T15:42:38;11.20;42.60
4386;DHT22;2207;53.540;10.042;2023-04-25T15:45:07;11.10;42.60
4386;DHT22;2207;53.540;10.042;2023-04-25T15:47:35;11.10;42.90
4386;DHT22;2207;53.540;10.042;2023-04-25T15:50:06;11.20;42.70
4386;DHT22;2207;53.540;10.042;2023-04-25T15:52:33;11.20;42.70
4386;DHT22;2207;53.540;10.042;2023-04-25T15:55:01;10.90;42.50
4386;DHT22;2207;53.540;10.042;2023-04-25T15:57:29;10.60;42.20
4386;DHT22;2207;53.540;10.042;2023-04-25T15:59:57;10.40;42.40
4386;DHT22;2207;53.540;10.042;2023-04-25T16:02:24;10.40;42.30
4386;DHT22;2207;53.540;10.042;2023-04-25T16:04:50;10.30;41.80
4386;DHT22;2207;53.540;10.042;2023-04-25T16:07:17;10.20;41.50
4386;DHT22;2207;53.540;10.042;2023-04-25T16:09:44;10.30;41.50
4386;DHT22;2207;53.540;10.042;2023-04-25T16:12:12;10.30;41.30
4386;DHT22;2207;53.540;10.042;2023-04-25T16:14:39;10.40;40.90
4386;DHT22;2207;53.540;10.042;2023-04-25T16:17:07;10.40;40.40
4386;DHT22;2207;53.540;10.042;2023-04-25T16:19:34;10.30;40.60
4386;DHT22;2207;53.540;10.042;2023-04-25T16:22:01;10.20;40.80
4386;DHT22;2207;53.540;10.042;2023-04-25T16:24:27;10.00;40.80
4386;DHT22;2207;53.540;10.042;2023-04-25T16:26:54;9.80;41.80
4386;DHT22;2207;53.540;10.042;2023-04-25T16:29:21;9.60;42.10
4386;DHT22;2207;53.540;10.042;2023-04-25T16:31:47;9.40;42.20
4386;DHT22;2207;53.540;10.042;2023-04-25T16:34:15;9.20;42.20
4386;DHT22;2207;53.540;10.042;2023-04-25T16:36:42;9.00;42.30
4386;DHT22;2207;53.540;10.042;2023-04-25T16:39:09;9.00;42.80
4386;DHT22;2207;53.540;10.042;2023-04-25T16:41:35;8.90;43.30
4386;DHT22;2207;53.540;10.042;2023-04-25T16:44:02;8.80;43.60
4386;DHT22;2207;53.540;10.042;2023-04-25T16:46:31;8.80;43.90
4386;DHT22;2207;53.540;10.042;2023-04-25T16:48:57;8.80;44.20
4386;DHT22;2207;53.540;10.042;2023-04-25T16:51:25;8.90;44.20
4386;DHT22;2207;53.540;10.042;2023-04-25T16:53:53;9.00;44.50
4386;DHT22;2207;53.540;10.042;2023-04-25T16:56:20;9.00;44.60
4386;DHT22;2207;53.540;10.042;2023-04-25T16:58:47;9.00;44.80
4386;DHT22;2207;53.540;10.042;2023-04-25T17:01:14;9.10;44.90
4386;DHT22;2207;53.540;10.042;2023-04-25T17:03:42;9.30;45.10
4386;DHT22;2207;53.540;10.042;2023-04-25T17:06:09;9.40;45.00
4386;DHT22;2207;53.540;10.042;2023-04-25T17:08:40;9.50;44.90
4386;DHT22;2207;53.540;10.042;2023-04-25T17:11:07;9.60;45.00
4386;DHT22;2207;53.540;10.042;2023-04-25T17:13:34;9.60;45.00
4386;DHT22;2207;53.540;10.042;2023-04-25T17:16:01;9.50;45.10
4386;DHT22;2207;53.540;10.042;2023-04-25T17:18:28;9.40;45.30
4386;DHT22;2207;53.540;10.042;2023-04-25T17:20:55;9.20;46.00
4386;DHT22;2207;53.540;10.042;2023-04-25T17:23:21;9.00;46.80
4386;DHT22;2207;53.540;10.042;2023-04-25T17:25:49;8.90;47.50
4386;DHT22;2207;53.540;10.042;2023-04-25T17:28:16;8.80;48.10
4386;DHT22;2207;53.540;10.042;2023-04-25T17:30:43;8.90;48.60
4386;DHT22;2207;53.540;10.042;2023-04-25T17:33:10;8.90;48.50
4386;DHT22;2207;53.540;10.042;2023-04-25T17:35:36;8.80;48.50
4386;DHT22;2207;53.540;10.042;2023-04-25T17:38:03;8.60;48.80
4386;DHT22;2207;53.540;10.042;2023-04-25T17:40:30;8.40;49.40
4386;DHT22;2207;53.540;10.042;2023-04-25T17:42:58;8.10;49.50
4386;DHT22;2207;53.540;10.042;2023-04-25T17:45:25;8.00;50.10
4386;DHT22;2207;53.540;10.042;2023-04-25T17:47:53;8.00;50.10
4386;DHT22;2207;53.540;10.042;2023-04-25T17:50:20;8.10;50.00
4386;DHT22;2207;53.540;10.042;2023-04-25T17:52:47;8.20;49.80
4386;DHT22;2207;53.540;10.042;2023-04-25T17:55:13;8.30;49.60
4386;DHT22;2207;53.540;10.042;2023-04-25T17:57:40;8.20;49.60
4386;DHT22;2207;53.540;10.042;2023-04-25T18:00:09;8.00;49.80
4386;DHT22;2207;53.540;10.042;2023-04-25T18:02:37;7.90;50.70
4386;DHT22;2207;53.540;10.042;2023-04-25T18:05:04;7.60;50.30
4386;DHT22;2207;53.540;10.042;2023-04-25T18:07:33;7.50;50.70
4386;DHT22;2207;53.540;10.042;2023-04-25T18:10:00;7.30;51.00
4386;DHT22;2207;53.540;10.042;2023-04-25T18:12:30;7.20;51.30
4386;DHT22;2207;53.540;10.042;2023-04-25T18:14:57;7.10;51.60
4386;DHT22;2207;53.540;10.042;2023-04-25T18:17:25;7.00;51.70
4386;DHT22;2207;53.540;10.042;2023-04-25T18:19:52;7.00;52.10
4386;DHT22;2207;53.540;10.042;2023-04-25T18:22:19;7.00;52.30
4386;DHT22;2207;53.540;10.042;2023-04-25T18:24:46;7.00;52.50
4386;DHT22;2207;53.540;10.042;2023-04-25T18:27:13;7.00;52.80
4386;DHT22;2207;53.540;10.042;2023-04-25T18:29:40;7.00;52.80
4386;DHT22;2207;53.540;10.042;2023-04-25T18:32:09;6.90;53.00
4386;DHT22;2207;53.540;10.042;2023-04-25T18:34:37;6.90;53.20
4386;DHT22;2207;53.540;10.042;2023-04-25T18:37:05;6.80;53.30
4386;DHT22;2207;53.540;10.042;2023-04-25T18:39:32;6.70;53.50
4386;DHT22;2207;53.540;10.042;2023-04-25T18:41:59;6.70;53.60
4386;DHT22;2207;53.540;10.042;2023-04-25T18:44:26;6.60;54.10
4386;DHT22;2207;53.540;10.042;2023-04-25T18:46:53;6.60;54.10
4386;DHT22;2207;53.540;10.042;2023-04-25T18:49:19;6.50;54.20
4386;DHT22;2207;53.540;10.042;2023-04-25T18:51:47;6.50;54.40
4386;DHT22;2207;53.540;10.042;2023-04-25T18:54:14;6.50;54.60
4386;DHT22;2207;53.540;10.042;2023-04-25T18:56:41;6.40;54.80
4386;DHT22;2207;53.540;10.042;2023-04-25T18:59:07;6.40;55.00
4386;DHT22;2207;53.540;10.042;2023-04-25T19:01:35;6.50;55.60
4386;DHT22;2207;53.540;10.042;2023-04-25T19:04:02;6.70;55.70
4386;DHT22;2207;53.540;10.042;2023-04-25T19:06:29;6.80;55.50
4386;DHT22;2207;53.540;10.042;2023-04-25T19:08:57;7.00;55.30
4386;DHT22;2207;53.540;10.042;2023-04-25T19:11:24;7.00;54.80
4386;DHT22;2207;53.540;10.042;2023-04-25T19:13:50;7.00;54.60
4386;DHT22;2207;53.540;10.042;2023-04-25T19:16:19;6.80;54.70
4386;DHT22;2207;53.540;10.042;2023-04-25T19:18:46;6.70;55.20
4386;DHT22;2207;53.540;10.042;2023-04-25T19:21:15;6.50;55.60
4386;DHT22;2207;53.540;10.042;2023-04-25T19:23:42;6.40;55.50
4386;DHT22;2207;53.540;10.042;2023-04-25T19:26:10;6.40;56.00
4386;DHT22;2207;53.540;10.042;2023-04-25T19:28:37;6.40;56.20
4386;DHT22;2207;53.540;10.042;2023-04-25T19:31:04;6.30;56.20
4386;DHT22;2207;53.540;10.042;2023-04-25T19:33:31;6.30;56.30
4386;DHT22;2207;53.540;10.042;2023-04-25T19:35:58;6.20;56.40
4386;DHT22;2207;53.540;10.042;2023-04-25T19:38:24;6.20;56.50
4386;DHT22;2207;53.540;10.042;2023-04-25T19:40:52;6.10;56.60
4386;DHT22;2207;53.540;10.042;2023-04-25T19:43:20;6.10;56.80
4386;DHT22;2207;53.540;10.042;2023-04-25T19:45:47;6.10;56.90
4386;DHT22;2207;53.540;10.042;2023-04-25T19:48:13;6.10;56.90
4386;DHT22;2207;53.540;10.042;2023-04-25T19:50:40;6.10;56.80
4386;DHT22;2207;53.540;10.042;2023-04-25T19:53:07;6.10;57.00
4386;DHT22;2207;53.540;10.042;2023-04-25T19:55:34;6.10;57.00
4386;DHT22;2207;53.540;10.042;2023-04-25T19:58:01;6.00;57.00
4386;DHT22;2207;53.540;10.042;2023-04-25T20:00:29;6.00;57.20
4386;DHT22;2207;53.540;10.042;2023-04-25T20:02:56;6.00;57.40
4386;DHT22;2207;53.540;10.042;2023-04-25T20:05:23;5.90;57.50
4386;DHT22;2207;53.540;10.042;2023-04-25T20:07:49;5.90;57.60
4386;DHT22;2207;53.540;10.042;2023-04-25T20:10:16;5.90;57.80
4386;DHT22;2207;53.540;10.042;2023-04-25T20:12:44;5.90;58.00
4386;DHT22;2207;53.540;10.042;2023-04-25T20:15:11;5.90;58.20
4386;DHT22;2207;53.540;10.042;2023-04-25T20:17:39;5.90;58.20
4386;DHT22;2207;53.540;10.042;2023-04-25T20:20:07;5.80;58.20
4386;DHT22;2207;53.540;10.042;2023-04-25T20:22:35;5.80;58.30
4386;DHT22;2207;53.540;10.042;2023-04-25T20:25:06;5.80;58.40
4386;DHT22;2207;53.540;10.042;2023-04-25T20:27:34;5.80;58.50
4386;DHT22;2207;53.540;10.042;2023-04-25T20:30:02;5.80;58.60
4386;DHT22;2207;53.540;10.042;2023-04-25T20:32:32;5.70;58.60
4386;DHT22;2207;53.540;10.042;2023-04-25T20:35:00;5.70;58.70
4386;DHT22;2207;53.540;10.042;2023-04-25T20:37:28;5.70;58.90
4386;DHT22;2207;53.540;10.042;2023-04-25T20:39:56;5.70;59.00
4386;DHT22;2207;53.540;10.042;2023-04-25T20:42:22;5.70;59.10
4386;DHT22;2207;53.540;10.042;2023-04-25T20:44:49;5.70;59.10
4386;DHT22;2207;53.540;10.042;2023-04-25T20:47:16;5.70;59.20
4386;DHT22;2207;53.540;10.042;2023-04-25T20:49:42;5.60;59.20
4386;DHT22;2207;53.540;10.042;2023-04-25T20:52:10;5.60;59.20
4386;DHT22;2207;53.540;10.042;2023-04-25T20:54:37;5.50;59.30
4386;DHT22;2207;53.540;10.042;2023-04-25T20:57:04;5.50;59.40
4386;DHT22;2207;53.540;10.042;2023-04-25T20:59:31;5.40;59.40
4386;DHT22;2207;53.540;10.042;2023-04-25T21:01:58;5.40;59.50
4386;DHT22;2207;53.540;10.042;2023-04-25T21:04:24;5.40;59.70
4386;DHT22;2207;53.540;10.042;2023-04-25T21:06:51;5.40;59.80
4386;DHT22;2207;53.540;10.042;2023-04-25T21:09:19;5.50;60.00
4386;DHT22;2207;53.540;10.042;2023-04-25T21:11:46;5.50;60.00
4386;DHT22;2207;53.540;10.042;2023-04-25T21:14:13;5.50;60.00
4386;DHT22;2207;53.540;10.042;2023-04-25T21:16:40;5.40;60.00
4386;DHT22;2207;53.540;10.042;2023-04-25T21:19:07;5.40;60.20
4386;DHT22;2207;53.540;10.042;2023-04-25T21:21:34;5.50;60.60
4386;DHT22;2207;53.540;10.042;2023-04-25T21:24:01;5.60;60.60
4386;DHT22;2207;53.540;10.042;2023-04-25T21:26:29;5.60;60.30
4386;DHT22;2207;53.540;10.042;2023-04-25T21:28:56;5.70;60.20
4386;DHT22;2207;53.540;10.042;2023-04-25T21:31:23;5.60;60.00
4386;DHT22;2207;53.540;10.042;2023-04-25T21:33:50;5.60;60.10
4386;DHT22;2207;53.540;10.042;2023-04-25T21:36:17;5.60;60.20
4386;DHT22;2207;53.540;10.042;2023-04-25T21:38:43;5.70;60.30
4386;DHT22;2207;53.540;10.042;2023-04-25T21:41:10;5.80;60.20
4386;DHT22;2207;53.540;10.042;2023-04-25T21:43:38;5.80;59.80
4386;DHT22;2207;53.540;10.042;2023-04-25T21:46:05;5.80;59.70
4386;DHT22;2207;53.540;10.042;2023-04-25T21:48:32;5.70;59.70
4386;DHT22;2207;53.540;10.042;2023-04-25T21:50:59;5.60;59.80
4386;DHT22;2207;53.540;10.042;2023-04-25T21:53:25;5.50;60.00
4386;DHT22;2207;53.540;10.042;2023-04-25T21:55:52;5.50;60.40
4386;DHT22;2207;53.540;10.042;2023-04-25T21:58:19;5.50;60.80
4386;DHT22;2207;53.540;10.042;2023-04-25T22:00:47;5.60;60.90
4386;DHT22;2207;53.540;10.042;2023-04-25T22:03:13;5.60;60.80
4386;DHT22;2207;53.540;10.042;2023-04-25T22:05:40;5.70;60.80
4386;DHT22;2207;53.540;10.042;2023-04-25T22:08:07;5.80;60.70
4386;DHT22;2207;53.540;10.042;2023-04-25T22:10:34;5.80;60.60
4386;DHT22;2207;53.540;10.042;2023-04-25T22:13:02;5.80;60.30
4386;DHT22;2207;53.540;10.042;2023-04-25T22:15:30;5.70;60.00
4386;DHT22;2207;53.540;10.042;2023-04-25T22:17:58;5.60;60.30
4386;DHT22;2207;53.540;10.042;2023-04-25T22:20:25;5.40;60.40
4386;DHT22;2207;53.540;10.042;2023-04-25T22:22:52;5.30;60.70
4386;DHT22;2207;53.540;10.042;2023-04-25T22:25:19;5.10;60.80
4386;DHT22;2207;53.540;10.042;2023-04-25T22:27:46;5.00;61.30
4386;DHT22;2207;53.540;10.042;2023-04-25T22:30:13;4.90;62.50
4386;DHT22;2207;53.540;10.042;2023-04-25T22:32:40;4.90;62.30
4386;DHT22;2207;53.540;10.042;2023-04-25T22:35:09;4.90;62.30
4386;DHT22;2207;53.540;10.042;2023-04-25T22:37:36;4.90;62.30
4386;DHT22;2207;53.540;10.042;2023-04-25T22:40:07;4.80;62.30
4386;DHT22;2207;53.540;10.042;2023-04-25T22:42:38;4.80;63.40
4386;DHT22;2207;53.540;10.042;2023-04-25T22:45:06;4.90;63.20
4386;DHT22;2207;53.540;10.042;2023-04-25T22:47:33;5.00;63.20
4386;DHT22;2207;53.540;10.042;2023-04-25T22:50:00;5.20;63.10
4386;DHT22;2207;53.540;10.042;2023-04-25T22:52:31;5.30;62.70
4386;DHT22;2207;53.540;10.042;2023-04-25T22:54:59;5.30;62.70
4386;DHT22;2207;53.540;10.042;2023-04-25T22:57:26;5.20;62.60
4386;DHT22;2207;53.540;10.042;2023-04-25T22:59:53;5.10;62.50
4386;DHT22;2207;53.540;10.042;2023-04-25T23:02:20;4.90;62.30
4386;DHT22;2207;53.540;10.042;2023-04-25T23:04:47;4.90;62.80
4386;DHT22;2207;53.540;10.042;2023-04-25T23:07:14;4.80;63.10
4386;DHT22;2207;53.540;10.042;2023-04-25T23:09:43;4.80;63.50
4386;DHT22;2207;53.540;10.042;2023-04-25T23:12:10;4.80;64.10
4386;DHT22;2207;53.540;10.042;2023-04-25T23:14:36;4.90;64.40
4386;DHT22;2207;53.540;10.042;2023-04-25T23:17:03;5.00;64.40
4386;DHT22;2207;53.540;10.042;2023-04-25T23:19:32;5.10;63.90
4386;DHT22;2207;53.540;10.042;2023-04-25T23:21:59;5.10;63.60
4386;DHT22;2207;53.540;10.042;2023-04-25T23:24:26;5.00;63.50
4386;DHT22;2207;53.540;10.042;2023-04-25T23:26:54;4.90;63.70
4386;DHT22;2207;53.540;10.042;2023-04-25T23:29:21;4.80;64.00
4386;DHT22;2207;53.540;10.042;2023-04-25T23:31:47;4.70;64.10
4386;DHT22;2207;53.540;10.042;2023-04-25T23:34:14;4.70;64.30
4386;DHT22;2207;53.540;10.042;2023-04-25T23:36:41;4.70;64.60
4386;DHT22;2207;53.540;10.042;2023-04-25T23:39:08;4.70;64.70
4386;DHT22;2207;53.540;10.042;2023-04-25T23:41:37;4.60;64.70
4386;DHT22;2207;53.540;10.042;2023-04-25T23:44:05;4.70;65.10
4386;DHT22;2207;53.540;10.042;2023-04-25T23:46:33;4.70;65.20
4386;DHT22;2207;53.540;10.042;2023-04-25T23:49:00;4.80;65.30
4386;DHT22;2207;53.540;10.042;2023-04-25T23:51:28;4.90;65.20
4386;DHT22;2207;53.540;10.042;2023-04-25T23:53:56;5.00;65.40
4386;DHT22;2207;53.540;10.042;2023-04-25T23:56:23;5.10;65.30
4386;DHT22;2207;53.540;10.042;2023-04-25T23:58:50;5.20;65.20
